sensor_id;sensor_type;location;lat;lon;timestamp;P1;durP1;ratioP1;P2;durP2;ratioP2
8312;SDS011;4194;43.408;24.626;2023-08-31T00:02:06;11.23;;;8.77;;
8312;SDS011;4194;43.408;24.626;2023-08-31T00:04:32;10.73;;;8.20;;
8312;SDS011;4194;43.408;24.626;2023-08-31T00:06:58;11.27;;;9.20;;
8312;SDS011;4194;43.408;24.626;2023-08-31T00:09:24;12.67;;;8.77;;
8312;SDS011;4194;43.408;24.626;2023-08-31T00:11:50;8.67;;;7.77;;
8312;SDS011;4194;43.408;24.626;2023-08-31T00:14:16;9.27;;;8.37;;
8312;SDS011;4194;43.408;24.626;2023-08-31T00:16:42;10.47;;;8.70;;
8312;SDS011;4194;43.408;24.626;2023-08-31T00:19:11;11.33;;;9.00;;
8312;SDS011;4194;43.408;24.626;2023-08-31T00:21:37;13.57;;;8.97;;
8312;SDS011;4194;43.408;24.626;2023-08-31T00:24:03;12.20;;;8.87;;
8312;SDS011;4194;43.408;24.626;2023-08-31T00:26:29;10.17;;;8.77;;
8312;SDS011;4194;43.408;24.626;2023-08-31T00:28:56;13.27;;;8.63;;
8312;SDS011;4194;43.408;24.626;2023-08-31T00:31:22;11.10;;;8.73;;
8312;SDS011;4194;43.408;24.626;2023-08-31T00:33:48;13.43;;;8.83;;
8312;SDS011;4194;43.408;24.626;2023-08-31T00:36:14;12.00;;;8.20;;
8312;SDS011;4194;43.408;24.626;2023-08-31T00:38:48;11.13;;;8.30;;
8312;SDS011;4194;43.408;24.626;2023-08-31T00:41:14;13.77;;;8.70;;
8312;SDS011;4194;43.408;24.626;2023-08-31T00:43:39;12.57;;;8.87;;
8312;SDS011;4194;43.408;24.626;2023-08-31T00:46:05;10.30;;;8.60;;
8312;SDS011;4194;43.408;24.626;2023-08-31T00:48:31;10.23;;;8.70;;
8312;SDS011;4194;43.408;24.626;2023-08-31T00:50:57;11.80;;;8.93;;
8312;SDS011;4194;43.408;24.626;2023-08-31T00:53:23;13.10;;;8.43;;
8312;SDS011;4194;43.408;24.626;2023-08-31T00:55:50;10.53;;;8.93;;
8312;SDS011;4194;43.408;24.626;2023-08-31T00:58:20;10.20;;;8.27;;
8312;SDS011;4194;43.408;24.626;2023-08-31T01:03:43;9.40;;;8.50;;
8312;SDS011;4194;43.408;24.626;2023-08-31T01:09:19;11.00;;;8.73;;
8312;SDS011;4194;43.408;24.626;2023-08-31T01:12:09;8.70;;;7.80;;
8312;SDS011;4194;43.408;24.626;2023-08-31T01:14:43;10.40;;;8.77;;
8312;SDS011;4194;43.408;24.626;2023-08-31T01:17:14;10.80;;;8.50;;
8312;SDS011;4194;43.408;24.626;2023-08-31T01:19:49;11.23;;;9.07;;
8312;SDS011;4194;43.408;24.626;2023-08-31T01:22:39;10.27;;;8.13;;
8312;SDS011;4194;43.408;24.626;2023-08-31T01:25:07;11.63;;;8.57;;
8312;SDS011;4194;43.408;24.626;2023-08-31T01:27:34;12.70;;;8.60;;
8312;SDS011;4194;43.408;24.626;2023-08-31T01:30:02;12.07;;;8.30;;
8312;SDS011;4194;43.408;24.626;2023-08-31T01:32:29;12.33;;;8.33;;
8312;SDS011;4194;43.408;24.626;2023-08-31T01:34:58;13.63;;;8.73;;
8312;SDS011;4194;43.408;24.626;2023-08-31T01:43:03;10.07;;;8.00;;
8312;SDS011;4194;43.408;24.626;2023-08-31T01:45:31;10.83;;;8.10;;
8312;SDS011;4194;43.408;24.626;2023-08-31T01:48:02;11.07;;;8.43;;
8312;SDS011;4194;43.408;24.626;2023-08-31T01:50:29;11.10;;;8.43;;
8312;SDS011;4194;43.408;24.626;2023-08-31T01:52:54;12.03;;;8.93;;
8312;SDS011;4194;43.408;24.626;2023-08-31T01:55:21;9.93;;;8.87;;
8312;SDS011;4194;43.408;24.626;2023-08-31T01:57:47;12.30;;;8.80;;
8312;SDS011;4194;43.408;24.626;2023-08-31T02:00:13;13.93;;;8.90;;
8312;SDS011;4194;43.408;24.626;2023-08-31T02:02:43;20.37;;;9.20;;
8312;SDS011;4194;43.408;24.626;2023-08-31T02:05:09;11.87;;;9.60;;
8312;SDS011;4194;43.408;24.626;2023-08-31T02:07:35;13.27;;;9.07;;
8312;SDS011;4194;43.408;24.626;2023-08-31T02:10:01;12.40;;;9.60;;
8312;SDS011;4194;43.408;24.626;2023-08-31T02:12:32;12.87;;;9.10;;
8312;SDS011;4194;43.408;24.626;2023-08-31T02:14:58;13.67;;;8.87;;
8312;SDS011;4194;43.408;24.626;2023-08-31T02:17:24;12.50;;;9.47;;
8312;SDS011;4194;43.408;24.626;2023-08-31T02:19:50;16.30;;;9.17;;
8312;SDS011;4194;43.408;24.626;2023-08-31T02:22:18;14.13;;;9.77;;
8312;SDS011;4194;43.408;24.626;2023-08-31T02:24:45;11.23;;;9.27;;
8312;SDS011;4194;43.408;24.626;2023-08-31T02:27:11;8.97;;;8.07;;
8312;SDS011;4194;43.408;24.626;2023-08-31T02:29:37;9.53;;;8.07;;
8312;SDS011;4194;43.408;24.626;2023-08-31T02:32:06;11.57;;;9.23;;
8312;SDS011;4194;43.408;24.626;2023-08-31T02:34:32;12.73;;;8.83;;
8312;SDS011;4194;43.408;24.626;2023-08-31T02:36:58;9.37;;;8.20;;
8312;SDS011;4194;43.408;24.626;2023-08-31T02:39:23;10.57;;;8.37;;
8312;SDS011;4194;43.408;24.626;2023-08-31T02:41:49;10.73;;;8.70;;
8312;SDS011;4194;43.408;24.626;2023-08-31T02:44:15;10.27;;;8.57;;
8312;SDS011;4194;43.408;24.626;2023-08-31T02:46:40;10.73;;;8.47;;
8312;SDS011;4194;43.408;24.626;2023-08-31T02:49:06;11.27;;;9.17;;
8312;SDS011;4194;43.408;24.626;2023-08-31T02:51:32;9.73;;;8.70;;
8312;SDS011;4194;43.408;24.626;2023-08-31T02:53:57;12.37;;;8.50;;
8312;SDS011;4194;43.408;24.626;2023-08-31T02:56:23;9.70;;;8.33;;
8312;SDS011;4194;43.408;24.626;2023-08-31T02:58:49;12.27;;;8.67;;
8312;SDS011;4194;43.408;24.626;2023-08-31T03:01:14;13.73;;;9.20;;
8312;SDS011;4194;43.408;24.626;2023-08-31T03:03:41;11.40;;;8.47;;
8312;SDS011;4194;43.408;24.626;2023-08-31T03:06:07;11.00;;;8.73;;
8312;SDS011;4194;43.408;24.626;2023-08-31T03:08:34;13.60;;;8.93;;
8312;SDS011;4194;43.408;24.626;2023-08-31T03:11:01;16.07;;;8.53;;
8312;SDS011;4194;43.408;24.626;2023-08-31T03:13:27;13.30;;;7.90;;
8312;SDS011;4194;43.408;24.626;2023-08-31T03:15:53;11.90;;;8.50;;
8312;SDS011;4194;43.408;24.626;2023-08-31T03:18:19;13.20;;;8.67;;
8312;SDS011;4194;43.408;24.626;2023-08-31T03:20:45;13.87;;;8.80;;
8312;SDS011;4194;43.408;24.626;2023-08-31T03:23:10;14.53;;;8.20;;
8312;SDS011;4194;43.408;24.626;2023-08-31T03:25:39;13.43;;;9.33;;
8312;SDS011;4194;43.408;24.626;2023-08-31T03:28:05;15.40;;;9.10;;
8312;SDS011;4194;43.408;24.626;2023-08-31T03:30:30;17.17;;;9.97;;
8312;SDS011;4194;43.408;24.626;2023-08-31T03:32:56;14.03;;;9.00;;
8312;SDS011;4194;43.408;24.626;2023-08-31T03:35:22;17.40;;;9.37;;
8312;SDS011;4194;43.408;24.626;2023-08-31T03:37:52;13.83;;;10.37;;
8312;SDS011;4194;43.408;24.626;2023-08-31T03:40:21;11.20;;;9.83;;
8312;SDS011;4194;43.408;24.626;2023-08-31T03:43:02;15.57;;;10.30;;
8312;SDS011;4194;43.408;24.626;2023-08-31T03:45:28;15.17;;;10.77;;
8312;SDS011;4194;43.408;24.626;2023-08-31T03:47:54;15.40;;;10.37;;
8312;SDS011;4194;43.408;24.626;2023-08-31T03:50:20;15.30;;;9.97;;
8312;SDS011;4194;43.408;24.626;2023-08-31T03:52:47;13.73;;;11.00;;
8312;SDS011;4194;43.408;24.626;2023-08-31T03:55:13;21.83;;;11.37;;
8312;SDS011;4194;43.408;24.626;2023-08-31T03:57:47;16.53;;;10.90;;
8312;SDS011;4194;43.408;24.626;2023-08-31T04:00:13;20.10;;;11.67;;
8312;SDS011;4194;43.408;24.626;2023-08-31T04:02:39;13.47;;;10.73;;
8312;SDS011;4194;43.408;24.626;2023-08-31T04:05:06;14.47;;;10.70;;
8312;SDS011;4194;43.408;24.626;2023-08-31T04:07:35;17.77;;;11.27;;
8312;SDS011;4194;43.408;24.626;2023-08-31T04:10:03;16.07;;;11.00;;
8312;SDS011;4194;43.408;24.626;2023-08-31T04:12:30;15.17;;;11.00;;
8312;SDS011;4194;43.408;24.626;2023-08-31T04:14:55;12.77;;;10.63;;
8312;SDS011;4194;43.408;24.626;2023-08-31T04:17:21;15.47;;;10.93;;
8312;SDS011;4194;43.408;24.626;2023-08-31T04:19:50;22.77;;;11.33;;
8312;SDS011;4194;43.408;24.626;2023-08-31T04:22:16;18.87;;;11.40;;
8312;SDS011;4194;43.408;24.626;2023-08-31T04:24:42;17.63;;;12.10;;
8312;SDS011;4194;43.408;24.626;2023-08-31T04:27:07;13.47;;;10.83;;
8312;SDS011;4194;43.408;24.626;2023-08-31T04:29:33;16.97;;;10.47;;
8312;SDS011;4194;43.408;24.626;2023-08-31T04:31:59;17.23;;;10.87;;
8312;SDS011;4194;43.408;24.626;2023-08-31T04:34:24;14.77;;;10.43;;
8312;SDS011;4194;43.408;24.626;2023-08-31T04:36:51;16.37;;;10.83;;
8312;SDS011;4194;43.408;24.626;2023-08-31T04:39:19;15.13;;;10.93;;
8312;SDS011;4194;43.408;24.626;2023-08-31T04:41:45;14.40;;;11.17;;
8312;SDS011;4194;43.408;24.626;2023-08-31T04:44:10;13.00;;;10.67;;
8312;SDS011;4194;43.408;24.626;2023-08-31T04:46:37;16.63;;;10.93;;
8312;SDS011;4194;43.408;24.626;2023-08-31T04:49:03;16.40;;;10.70;;
8312;SDS011;4194;43.408;24.626;2023-08-31T04:51:33;18.20;;;11.20;;
8312;SDS011;4194;43.408;24.626;2023-08-31T04:54:00;12.17;;;9.33;;
8312;SDS011;4194;43.408;24.626;2023-08-31T04:56:30;14.60;;;9.00;;
8312;SDS011;4194;43.408;24.626;2023-08-31T04:58:57;15.03;;;9.50;;
8312;SDS011;4194;43.408;24.626;2023-08-31T05:01:23;10.43;;;9.13;;
8312;SDS011;4194;43.408;24.626;2023-08-31T05:03:51;11.90;;;7.93;;
8312;SDS011;4194;43.408;24.626;2023-08-31T05:06:20;12.27;;;8.60;;
8312;SDS011;4194;43.408;24.626;2023-08-31T05:08:46;12.37;;;8.20;;
8312;SDS011;4194;43.408;24.626;2023-08-31T05:11:13;11.13;;;8.03;;
8312;SDS011;4194;43.408;24.626;2023-08-31T05:13:39;14.83;;;8.50;;
8312;SDS011;4194;43.408;24.626;2023-08-31T05:16:10;13.33;;;7.80;;
8312;SDS011;4194;43.408;24.626;2023-08-31T05:18:36;9.50;;;7.57;;
8312;SDS011;4194;43.408;24.626;2023-08-31T05:21:05;12.93;;;7.47;;
8312;SDS011;4194;43.408;24.626;2023-08-31T05:23:30;12.07;;;7.63;;
8312;SDS011;4194;43.408;24.626;2023-08-31T05:25:56;11.17;;;8.30;;
8312;SDS011;4194;43.408;24.626;2023-08-31T05:28:22;8.60;;;7.70;;
8312;SDS011;4194;43.408;24.626;2023-08-31T05:30:49;10.43;;;7.20;;
8312;SDS011;4194;43.408;24.626;2023-08-31T05:33:16;9.63;;;7.63;;
8312;SDS011;4194;43.408;24.626;2023-08-31T05:35:42;10.13;;;7.33;;
8312;SDS011;4194;43.408;24.626;2023-08-31T05:38:09;9.30;;;7.10;;
8312;SDS011;4194;43.408;24.626;2023-08-31T05:40:34;10.97;;;7.27;;
8312;SDS011;4194;43.408;24.626;2023-08-31T05:43:00;9.97;;;7.37;;
8312;SDS011;4194;43.408;24.626;2023-08-31T05:45:28;10.57;;;7.27;;
8312;SDS011;4194;43.408;24.626;2023-08-31T05:48:00;11.10;;;7.57;;
8312;SDS011;4194;43.408;24.626;2023-08-31T05:50:26;13.53;;;6.57;;
8312;SDS011;4194;43.408;24.626;2023-08-31T05:52:52;15.50;;;6.23;;
8312;SDS011;4194;43.408;24.626;2023-08-31T05:55:19;11.40;;;6.40;;
8312;SDS011;4194;43.408;24.626;2023-08-31T05:57:45;7.07;;;6.03;;
8312;SDS011;4194;43.408;24.626;2023-08-31T06:00:10;9.70;;;6.00;;
8312;SDS011;4194;43.408;24.626;2023-08-31T06:02:37;9.47;;;6.07;;
8312;SDS011;4194;43.408;24.626;2023-08-31T06:05:03;11.17;;;6.43;;
8312;SDS011;4194;43.408;24.626;2023-08-31T06:07:29;11.77;;;6.03;;
8312;SDS011;4194;43.408;24.626;2023-08-31T06:09:56;8.53;;;5.60;;
8312;SDS011;4194;43.408;24.626;2023-08-31T06:12:22;10.40;;;6.10;;
8312;SDS011;4194;43.408;24.626;2023-08-31T06:14:48;9.20;;;5.70;;
8312;SDS011;4194;43.408;24.626;2023-08-31T06:17:14;10.40;;;6.20;;
8312;SDS011;4194;43.408;24.626;2023-08-31T06:19:40;9.47;;;5.83;;
8312;SDS011;4194;43.408;24.626;2023-08-31T06:22:07;8.07;;;5.40;;
8312;SDS011;4194;43.408;24.626;2023-08-31T06:24:32;11.17;;;6.07;;
8312;SDS011;4194;43.408;24.626;2023-08-31T06:26:59;10.50;;;5.23;;
8312;SDS011;4194;43.408;24.626;2023-08-31T06:29:25;8.10;;;4.80;;
8312;SDS011;4194;43.408;24.626;2023-08-31T06:31:51;6.70;;;5.13;;
8312;SDS011;4194;43.408;24.626;2023-08-31T06:34:17;6.90;;;5.27;;
8312;SDS011;4194;43.408;24.626;2023-08-31T06:36:42;9.53;;;5.33;;
8312;SDS011;4194;43.408;24.626;2023-08-31T06:39:08;8.83;;;4.73;;
8312;SDS011;4194;43.408;24.626;2023-08-31T06:41:34;11.33;;;5.10;;
8312;SDS011;4194;43.408;24.626;2023-08-31T06:43:59;7.60;;;5.00;;
8312;SDS011;4194;43.408;24.626;2023-08-31T06:46:26;8.87;;;5.43;;
8312;SDS011;4194;43.408;24.626;2023-08-31T06:48:52;10.07;;;5.13;;
8312;SDS011;4194;43.408;24.626;2023-08-31T06:51:18;11.13;;;4.57;;
8312;SDS011;4194;43.408;24.626;2023-08-31T06:53:44;8.57;;;4.50;;
8312;SDS011;4194;43.408;24.626;2023-08-31T06:56:11;7.30;;;3.77;;
8312;SDS011;4194;43.408;24.626;2023-08-31T06:58:37;8.63;;;4.17;;
8312;SDS011;4194;43.408;24.626;2023-08-31T07:01:05;6.00;;;3.67;;
8312;SDS011;4194;43.408;24.626;2023-08-31T07:03:31;5.03;;;4.07;;
8312;SDS011;4194;43.408;24.626;2023-08-31T07:05:57;8.63;;;4.47;;
8312;SDS011;4194;43.408;24.626;2023-08-31T07:08:22;9.13;;;4.83;;
8312;SDS011;4194;43.408;24.626;2023-08-31T07:10:51;6.63;;;5.07;;
8312;SDS011;4194;43.408;24.626;2023-08-31T07:13:17;7.87;;;4.70;;
8312;SDS011;4194;43.408;24.626;2023-08-31T07:15:43;6.97;;;4.83;;
8312;SDS011;4194;43.408;24.626;2023-08-31T07:18:09;7.63;;;4.50;;
8312;SDS011;4194;43.408;24.626;2023-08-31T07:20:35;6.63;;;4.40;;
8312;SDS011;4194;43.408;24.626;2023-08-31T07:23:01;8.43;;;4.63;;
8312;SDS011;4194;43.408;24.626;2023-08-31T07:25:26;6.43;;;4.30;;
8312;SDS011;4194;43.408;24.626;2023-08-31T07:27:53;5.87;;;4.40;;
8312;SDS011;4194;43.408;24.626;2023-08-31T07:30:19;9.13;;;4.13;;
8312;SDS011;4194;43.408;24.626;2023-08-31T07:32:44;10.47;;;3.93;;
8312;SDS011;4194;43.408;24.626;2023-08-31T07:35:11;5.77;;;2.47;;
8312;SDS011;4194;43.408;24.626;2023-08-31T07:37:36;6.77;;;2.97;;
8312;SDS011;4194;43.408;24.626;2023-08-31T07:40:02;9.37;;;3.13;;
8312;SDS011;4194;43.408;24.626;2023-08-31T07:42:33;5.37;;;2.77;;
8312;SDS011;4194;43.408;24.626;2023-08-31T07:44:59;7.27;;;2.60;;
8312;SDS011;4194;43.408;24.626;2023-08-31T07:47:25;5.27;;;2.40;;
8312;SDS011;4194;43.408;24.626;2023-08-31T07:49:50;5.03;;;1.73;;
8312;SDS011;4194;43.408;24.626;2023-08-31T07:52:16;7.03;;;2.43;;
8312;SDS011;4194;43.408;24.626;2023-08-31T07:54:42;3.07;;;2.00;;
8312;SDS011;4194;43.408;24.626;2023-08-31T07:57:08;7.10;;;2.33;;
8312;SDS011;4194;43.408;24.626;2023-08-31T07:59:34;4.70;;;2.43;;
8312;SDS011;4194;43.408;24.626;2023-08-31T08:02:05;2.27;;;1.83;;
8312;SDS011;4194;43.408;24.626;2023-08-31T08:04:31;5.33;;;2.60;;
8312;SDS011;4194;43.408;24.626;2023-08-31T08:06:57;5.57;;;2.33;;
8312;SDS011;4194;43.408;24.626;2023-08-31T08:09:23;5.43;;;2.23;;
8312;SDS011;4194;43.408;24.626;2023-08-31T08:11:49;5.67;;;2.27;;
8312;SDS011;4194;43.408;24.626;2023-08-31T08:14:15;5.07;;;2.00;;
8312;SDS011;4194;43.408;24.626;2023-08-31T08:16:41;3.50;;;1.53;;
8312;SDS011;4194;43.408;24.626;2023-08-31T08:19:07;8.63;;;3.23;;
8312;SDS011;4194;43.408;24.626;2023-08-31T08:21:33;5.50;;;3.20;;
8312;SDS011;4194;43.408;24.626;2023-08-31T08:23:59;6.73;;;3.10;;
8312;SDS011;4194;43.408;24.626;2023-08-31T08:26:25;8.07;;;2.37;;
8312;SDS011;4194;43.408;24.626;2023-08-31T08:28:51;13.07;;;6.00;;
8312;SDS011;4194;43.408;24.626;2023-08-31T08:31:16;12.23;;;5.83;;
8312;SDS011;4194;43.408;24.626;2023-08-31T08:33:42;8.90;;;3.57;;
8312;SDS011;4194;43.408;24.626;2023-08-31T08:36:08;4.97;;;2.10;;
8312;SDS011;4194;43.408;24.626;2023-08-31T08:38:33;13.30;;;7.23;;
8312;SDS011;4194;43.408;24.626;2023-08-31T08:41:05;17.77;;;7.20;;
8312;SDS011;4194;43.408;24.626;2023-08-31T08:43:32;7.27;;;3.00;;
8312;SDS011;4194;43.408;24.626;2023-08-31T08:46:04;12.93;;;7.53;;
8312;SDS011;4194;43.408;24.626;2023-08-31T08:48:32;8.67;;;2.97;;
8312;SDS011;4194;43.408;24.626;2023-08-31T08:51:00;6.47;;;2.77;;
8312;SDS011;4194;43.408;24.626;2023-08-31T08:53:27;3.90;;;2.10;;
8312;SDS011;4194;43.408;24.626;2023-08-31T08:55:53;7.87;;;2.33;;
8312;SDS011;4194;43.408;24.626;2023-08-31T08:58:20;3.67;;;2.00;;
8312;SDS011;4194;43.408;24.626;2023-08-31T09:00:46;4.90;;;2.50;;
8312;SDS011;4194;43.408;24.626;2023-08-31T09:03:12;4.37;;;2.23;;
8312;SDS011;4194;43.408;24.626;2023-08-31T09:05:38;5.80;;;2.40;;
8312;SDS011;4194;43.408;24.626;2023-08-31T09:08:08;6.83;;;2.20;;
8312;SDS011;4194;43.408;24.626;2023-08-31T09:10:40;7.37;;;2.70;;
8312;SDS011;4194;43.408;24.626;2023-08-31T09:13:08;4.07;;;2.03;;
8312;SDS011;4194;43.408;24.626;2023-08-31T09:15:45;8.50;;;2.90;;
8312;SDS011;4194;43.408;24.626;2023-08-31T09:18:16;4.57;;;2.33;;
8312;SDS011;4194;43.408;24.626;2023-08-31T09:20:49;3.57;;;1.67;;
8312;SDS011;4194;43.408;24.626;2023-08-31T09:23:16;8.50;;;2.50;;
8312;SDS011;4194;43.408;24.626;2023-08-31T09:28:09;9.17;;;3.03;;
8312;SDS011;4194;43.408;24.626;2023-08-31T09:30:38;4.73;;;2.00;;
8312;SDS011;4194;43.408;24.626;2023-08-31T09:33:06;3.93;;;2.10;;
8312;SDS011;4194;43.408;24.626;2023-08-31T09:35:34;9.73;;;2.63;;
8312;SDS011;4194;43.408;24.626;2023-08-31T09:38:03;6.43;;;2.03;;
8312;SDS011;4194;43.408;24.626;2023-08-31T09:40:33;7.50;;;2.20;;
8312;SDS011;4194;43.408;24.626;2023-08-31T09:42:58;6.57;;;2.30;;
8312;SDS011;4194;43.408;24.626;2023-08-31T09:45:30;4.40;;;1.80;;
8312;SDS011;4194;43.408;24.626;2023-08-31T09:47:58;7.23;;;1.90;;
8312;SDS011;4194;43.408;24.626;2023-08-31T09:50:25;6.27;;;2.40;;
8312;SDS011;4194;43.408;24.626;2023-08-31T09:53:02;7.00;;;2.40;;
8312;SDS011;4194;43.408;24.626;2023-08-31T09:55:29;4.03;;;2.17;;
8312;SDS011;4194;43.408;24.626;2023-08-31T09:58:00;5.53;;;2.73;;
8312;SDS011;4194;43.408;24.626;2023-08-31T10:00:28;4.13;;;2.20;;
8312;SDS011;4194;43.408;24.626;2023-08-31T10:02:56;5.13;;;2.63;;
8312;SDS011;4194;43.408;24.626;2023-08-31T10:05:25;4.40;;;2.13;;
8312;SDS011;4194;43.408;24.626;2023-08-31T10:07:51;4.37;;;1.83;;
8312;SDS011;4194;43.408;24.626;2023-08-31T10:10:17;8.50;;;2.20;;
8312;SDS011;4194;43.408;24.626;2023-08-31T10:12:47;5.03;;;2.00;;
8312;SDS011;4194;43.408;24.626;2023-08-31T10:15:15;5.40;;;1.80;;
8312;SDS011;4194;43.408;24.626;2023-08-31T10:17:41;5.27;;;2.23;;
8312;SDS011;4194;43.408;24.626;2023-08-31T10:20:08;5.77;;;2.47;;
8312;SDS011;4194;43.408;24.626;2023-08-31T10:22:37;4.83;;;1.73;;
8312;SDS011;4194;43.408;24.626;2023-08-31T10:25:04;3.47;;;2.00;;
8312;SDS011;4194;43.408;24.626;2023-08-31T10:30:14;4.33;;;2.30;;
8312;SDS011;4194;43.408;24.626;2023-08-31T10:35:41;6.10;;;2.30;;
8312;SDS011;4194;43.408;24.626;2023-08-31T10:46:32;4.43;;;1.70;;
8312;SDS011;4194;43.408;24.626;2023-08-31T10:49:17;4.97;;;3.13;;
8312;SDS011;4194;43.408;24.626;2023-08-31T10:51:45;4.03;;;2.00;;
8312;SDS011;4194;43.408;24.626;2023-08-31T10:54:25;6.78;;;1.88;;
8312;SDS011;4194;43.408;24.626;2023-08-31T11:02:34;3.08;;;1.75;;
8312;SDS011;4194;43.408;24.626;2023-08-31T11:07:42;3.45;;;1.70;;
8312;SDS011;4194;43.408;24.626;2023-08-31T11:10:19;4.50;;;1.70;;
8312;SDS011;4194;43.408;24.626;2023-08-31T11:12:48;5.47;;;1.50;;
8312;SDS011;4194;43.408;24.626;2023-08-31T11:15:20;6.03;;;2.05;;
8312;SDS011;4194;43.408;24.626;2023-08-31T11:17:50;6.03;;;1.83;;
8312;SDS011;4194;43.408;24.626;2023-08-31T11:20:17;8.07;;;2.00;;
8312;SDS011;4194;43.408;24.626;2023-08-31T11:22:48;4.18;;;2.08;;
8312;SDS011;4194;43.408;24.626;2023-08-31T11:25:15;3.63;;;2.08;;
8312;SDS011;4194;43.408;24.626;2023-08-31T11:27:42;3.78;;;1.70;;
8312;SDS011;4194;43.408;24.626;2023-08-31T11:30:17;3.50;;;1.63;;
8312;SDS011;4194;43.408;24.626;2023-08-31T11:32:50;2.72;;;1.77;;
8312;SDS011;4194;43.408;24.626;2023-08-31T11:35:17;4.50;;;1.80;;
8312;SDS011;4194;43.408;24.626;2023-08-31T11:37:44;3.40;;;1.52;;
8312;SDS011;4194;43.408;24.626;2023-08-31T11:40:11;5.55;;;1.80;;
8312;SDS011;4194;43.408;24.626;2023-08-31T11:42:39;6.00;;;2.22;;
8312;SDS011;4194;43.408;24.626;2023-08-31T11:45:06;5.47;;;1.90;;
8312;SDS011;4194;43.408;24.626;2023-08-31T11:47:32;5.80;;;2.03;;
8312;SDS011;4194;43.408;24.626;2023-08-31T11:49:59;4.03;;;1.60;;
8312;SDS011;4194;43.408;24.626;2023-08-31T11:52:28;8.05;;;2.30;;
8312;SDS011;4194;43.408;24.626;2023-08-31T11:54:56;8.98;;;1.67;;
8312;SDS011;4194;43.408;24.626;2023-08-31T11:57:30;7.88;;;2.10;;
8312;SDS011;4194;43.408;24.626;2023-08-31T11:59:56;5.07;;;1.77;;
8312;SDS011;4194;43.408;24.626;2023-08-31T12:02:22;5.43;;;2.25;;
8312;SDS011;4194;43.408;24.626;2023-08-31T12:04:48;3.10;;;1.75;;
8312;SDS011;4194;43.408;24.626;2023-08-31T12:07:17;3.72;;;1.80;;
8312;SDS011;4194;43.408;24.626;2023-08-31T12:09:46;5.05;;;2.15;;
8312;SDS011;4194;43.408;24.626;2023-08-31T12:12:13;3.42;;;1.90;;
8312;SDS011;4194;43.408;24.626;2023-08-31T12:14:40;3.80;;;1.63;;
8312;SDS011;4194;43.408;24.626;2023-08-31T12:17:07;4.57;;;1.88;;
8312;SDS011;4194;43.408;24.626;2023-08-31T12:19:35;4.43;;;2.08;;
8312;SDS011;4194;43.408;24.626;2023-08-31T12:22:02;3.60;;;1.88;;
8312;SDS011;4194;43.408;24.626;2023-08-31T12:24:37;2.03;;;1.63;;
8312;SDS011;4194;43.408;24.626;2023-08-31T12:27:05;4.80;;;1.55;;
8312;SDS011;4194;43.408;24.626;2023-08-31T12:29:31;4.07;;;1.90;;
8312;SDS011;4194;43.408;24.626;2023-08-31T12:31:57;3.58;;;1.63;;
8312;SDS011;4194;43.408;24.626;2023-08-31T12:34:24;3.63;;;1.92;;
8312;SDS011;4194;43.408;24.626;2023-08-31T12:36:49;2.72;;;1.70;;
8312;SDS011;4194;43.408;24.626;2023-08-31T12:39:15;6.80;;;1.98;;
8312;SDS011;4194;43.408;24.626;2023-08-31T12:41:41;4.70;;;1.85;;
8312;SDS011;4194;43.408;24.626;2023-08-31T12:44:07;4.97;;;1.80;;
8312;SDS011;4194;43.408;24.626;2023-08-31T12:46:33;4.57;;;1.77;;
8312;SDS011;4194;43.408;24.626;2023-08-31T12:49:00;4.57;;;1.90;;
8312;SDS011;4194;43.408;24.626;2023-08-31T12:51:26;3.40;;;1.88;;
8312;SDS011;4194;43.408;24.626;2023-08-31T12:53:53;9.32;;;1.75;;
8312;SDS011;4194;43.408;24.626;2023-08-31T12:56:20;4.32;;;1.70;;
8312;SDS011;4194;43.408;24.626;2023-08-31T12:58:49;3.83;;;1.67;;
8312;SDS011;4194;43.408;24.626;2023-08-31T13:01:15;4.28;;;1.92;;
8312;SDS011;4194;43.408;24.626;2023-08-31T13:03:41;4.07;;;1.70;;
8312;SDS011;4194;43.408;24.626;2023-08-31T13:06:07;6.38;;;2.30;;
8312;SDS011;4194;43.408;24.626;2023-08-31T13:08:32;2.88;;;2.03;;
8312;SDS011;4194;43.408;24.626;2023-08-31T13:10:58;5.53;;;2.15;;
8312;SDS011;4194;43.408;24.626;2023-08-31T13:13:24;2.63;;;1.42;;
8312;SDS011;4194;43.408;24.626;2023-08-31T13:15:49;3.88;;;1.70;;
8312;SDS011;4194;43.408;24.626;2023-08-31T13:18:15;4.35;;;1.55;;
8312;SDS011;4194;43.408;24.626;2023-08-31T13:20:48;4.22;;;1.75;;
8312;SDS011;4194;43.408;24.626;2023-08-31T13:23:19;4.65;;;1.73;;
8312;SDS011;4194;43.408;24.626;2023-08-31T13:25:45;4.47;;;2.13;;
8312;SDS011;4194;43.408;24.626;2023-08-31T13:28:11;3.28;;;1.65;;
8312;SDS011;4194;43.408;24.626;2023-08-31T13:30:37;4.15;;;1.70;;
8312;SDS011;4194;43.408;24.626;2023-08-31T13:33:04;5.13;;;1.65;;
8312;SDS011;4194;43.408;24.626;2023-08-31T13:35:30;4.88;;;1.60;;
8312;SDS011;4194;43.408;24.626;2023-08-31T13:37:56;5.05;;;1.70;;
8312;SDS011;4194;43.408;24.626;2023-08-31T13:40:22;5.03;;;1.90;;
8312;SDS011;4194;43.408;24.626;2023-08-31T13:42:54;5.55;;;1.90;;
8312;SDS011;4194;43.408;24.626;2023-08-31T13:45:24;4.80;;;1.52;;
8312;SDS011;4194;43.408;24.626;2023-08-31T13:47:50;2.70;;;1.90;;
8312;SDS011;4194;43.408;24.626;2023-08-31T13:50:18;5.47;;;2.13;;
8312;SDS011;4194;43.408;24.626;2023-08-31T13:52:44;6.97;;;1.80;;
8312;SDS011;4194;43.408;24.626;2023-08-31T13:55:10;4.05;;;1.83;;
8312;SDS011;4194;43.408;24.626;2023-08-31T13:57:36;5.43;;;2.30;;
8312;SDS011;4194;43.408;24.626;2023-08-31T14:00:03;4.32;;;1.58;;
8312;SDS011;4194;43.408;24.626;2023-08-31T14:02:34;3.20;;;2.10;;
8312;SDS011;4194;43.408;24.626;2023-08-31T14:05:01;3.63;;;2.03;;
8312;SDS011;4194;43.408;24.626;2023-08-31T14:07:27;4.90;;;1.92;;
8312;SDS011;4194;43.408;24.626;2023-08-31T14:09:53;5.40;;;1.90;;
8312;SDS011;4194;43.408;24.626;2023-08-31T14:12:18;8.18;;;1.42;;
8312;SDS011;4194;43.408;24.626;2023-08-31T14:14:45;5.38;;;1.92;;
8312;SDS011;4194;43.408;24.626;2023-08-31T14:17:11;4.40;;;2.20;;
8312;SDS011;4194;43.408;24.626;2023-08-31T14:19:37;4.15;;;1.98;;
8312;SDS011;4194;43.408;24.626;2023-08-31T14:22:04;4.93;;;1.52;;
8312;SDS011;4194;43.408;24.626;2023-08-31T14:24:30;2.70;;;1.70;;
8312;SDS011;4194;43.408;24.626;2023-08-31T14:26:55;2.65;;;1.83;;
8312;SDS011;4194;43.408;24.626;2023-08-31T14:29:22;3.63;;;1.42;;
8312;SDS011;4194;43.408;24.626;2023-08-31T14:31:48;2.53;;;1.52;;
8312;SDS011;4194;43.408;24.626;2023-08-31T14:34:14;3.05;;;1.50;;
8312;SDS011;4194;43.408;24.626;2023-08-31T14:36:40;4.50;;;1.60;;
8312;SDS011;4194;43.408;24.626;2023-08-31T14:39:05;5.45;;;1.80;;
8312;SDS011;4194;43.408;24.626;2023-08-31T14:41:31;3.15;;;1.40;;
8312;SDS011;4194;43.408;24.626;2023-08-31T14:43:57;5.22;;;2.13;;
8312;SDS011;4194;43.408;24.626;2023-08-31T14:46:28;4.75;;;1.65;;
8312;SDS011;4194;43.408;24.626;2023-08-31T14:49:06;5.35;;;1.85;;
8312;SDS011;4194;43.408;24.626;2023-08-31T14:51:32;4.57;;;1.90;;
8312;SDS011;4194;43.408;24.626;2023-08-31T14:53:58;6.03;;;1.92;;
8312;SDS011;4194;43.408;24.626;2023-08-31T14:56:23;6.93;;;2.05;;
8312;SDS011;4194;43.408;24.626;2023-08-31T14:58:49;5.95;;;2.17;;
8312;SDS011;4194;43.408;24.626;2023-08-31T15:01:15;3.13;;;1.70;;
8312;SDS011;4194;43.408;24.626;2023-08-31T15:03:41;5.20;;;1.95;;
8312;SDS011;4194;43.408;24.626;2023-08-31T15:06:06;5.78;;;1.58;;
8312;SDS011;4194;43.408;24.626;2023-08-31T15:08:36;2.85;;;1.75;;
8312;SDS011;4194;43.408;24.626;2023-08-31T15:11:03;3.83;;;1.90;;
8312;SDS011;4194;43.408;24.626;2023-08-31T15:13:29;5.93;;;1.80;;
8312;SDS011;4194;43.408;24.626;2023-08-31T15:15:55;3.92;;;1.70;;
8312;SDS011;4194;43.408;24.626;2023-08-31T15:18:21;4.80;;;1.77;;
8312;SDS011;4194;43.408;24.626;2023-08-31T15:20:47;2.65;;;1.80;;
8312;SDS011;4194;43.408;24.626;2023-08-31T15:23:13;8.50;;;2.00;;
8312;SDS011;4194;43.408;24.626;2023-08-31T15:25:38;6.88;;;2.10;;
8312;SDS011;4194;43.408;24.626;2023-08-31T15:28:04;4.03;;;1.90;;
8312;SDS011;4194;43.408;24.626;2023-08-31T15:30:30;5.05;;;1.98;;
8312;SDS011;4194;43.408;24.626;2023-08-31T15:33:04;5.22;;;2.08;;